Time;durP1;ratioP1;P1;durP2;ratioP2;P2;SDS_P1;SDS_P2;PMS_P1;PMS_P2;Temp;Humidity;BMP_temperature;BMP_pressure;BME280_temperature;BME280_humidity;BME280_pressure;Samples;Min_cycle;Max_cycle;Signal;HPM_P1;HPM_P2
2023/02/15 00:01:31;;;;;;;37.88;16.95;;;;;;;;;;5068614;28;20028;-59
2023/02/15 00:03:57;;;;;;;29.85;15.65;;;;;;;;;;5067488;28;20024;-60
2023/02/15 00:06:23;;;;;;;35.58;15.73;;;;;;;;;;5069366;28;20243;-60
2023/02/15 00:08:49;;;;;;;34.30;16.30;;;;;;;;;;5068012;28;20044;-60
2023/02/15 00:11:16;;;;;;;32.17;16.23;;;;;;;;;;5069326;28;20056;-60
2023/02/15 00:13:42;;;;;;;34.58;17.05;;;;;;;;;;5070603;28;20541;-60
2023/02/15 00:16:12;;;;;;;33.63;16.00;;;;;;;;;;5070487;28;20025;-60
2023/02/15 00:18:41;;;;;;;33.65;15.98;;;;;;;;;;5069397;28;20405;-60
2023/02/15 00:21:09;;;;;;;30.98;15.75;;;;;;;;;;5070545;28;20051;-60
2023/02/15 00:23:35;;;;;;;33.55;15.30;;;;;;;;;;5070802;28;20032;-60
2023/02/15 00:26:08;;;;;;;33.30;14.88;;;;;;;;;;5065358;28;20072;-60
2023/02/15 00:28:33;;;;;;;31.15;14.15;;;;;;;;;;5068571;28;20024;-60
2023/02/15 00:31:06;;;;;;;33.88;16.23;;;;;;;;;;5070299;28;20405;-60
2023/02/15 00:33:32;;;;;;;31.77;14.57;;;;;;;;;;5070616;28;20392;-60
2023/02/15 00:35:58;;;;;;;33.63;14.98;;;;;;;;;;5069539;28;20025;-60
2023/02/15 00:38:24;;;;;;;29.25;15.07;;;;;;;;;;5066461;28;20028;-59
2023/02/15 00:40:54;;;;;;;31.42;14.80;;;;;;;;;;5068367;28;20066;-60
2023/02/15 00:43:20;;;;;;;28.35;13.32;;;;;;;;;;5069254;28;20397;-58
2023/02/15 00:45:46;;;;;;;25.83;14.05;;;;;;;;;;5066040;28;20028;-60
2023/02/15 00:48:11;;;;;;;28.50;13.93;;;;;;;;;;5067459;28;20456;-59
2023/02/15 00:50:36;;;;;;;28.88;13.73;;;;;;;;;;5068427;28;20037;-59
2023/02/15 00:53:02;;;;;;;29.80;14.00;;;;;;;;;;5069037;28;20016;-59
2023/02/15 00:55:27;;;;;;;32.97;14.57;;;;;;;;;;5069537;28;20035;-59
2023/02/15 00:57:53;;;;;;;32.00;14.75;;;;;;;;;;5068932;28;20378;-59
2023/02/15 01:00:18;;;;;;;30.08;14.73;;;;;;;;;;5066670;28;20032;-59
2023/02/15 01:02:43;;;;;;;29.38;14.25;;;;;;;;;;5069286;28;20028;-59
2023/02/15 01:05:09;;;;;;;29.38;13.02;;;;;;;;;;5067080;28;20060;-59
2023/02/15 01:07:34;;;;;;;28.92;13.55;;;;;;;;;;5065025;28;20044;-59
2023/02/15 01:09:59;;;;;;;32.53;13.63;;;;;;;;;;5066958;28;20493;-59
2023/02/15 01:12:25;;;;;;;29.38;14.82;;;;;;;;;;5063400;28;20032;-59
2023/02/15 01:14:50;;;;;;;29.88;14.25;;;;;;;;;;5066691;28;20119;-59
2023/02/15 01:17:16;;;;;;;32.03;13.95;;;;;;;;;;5062820;28;20033;-59
2023/02/15 01:19:41;;;;;;;27.48;13.18;;;;;;;;;;5067359;28;20043;-59
2023/02/15 01:22:06;;;;;;;35.38;14.38;;;;;;;;;;5065422;28;20103;-59
2023/02/15 01:24:32;;;;;;;30.60;14.00;;;;;;;;;;5067708;28;20099;-59
2023/02/15 01:26:57;;;;;;;29.25;13.52;;;;;;;;;;5062745;28;20051;-59
2023/02/15 01:29:22;;;;;;;32.42;14.15;;;;;;;;;;5063512;28;20523;-59
2023/02/15 01:31:48;;;;;;;25.73;12.02;;;;;;;;;;5066875;28;20020;-59
2023/02/15 01:34:13;;;;;;;29.50;14.55;;;;;;;;;;5068873;28;20078;-58
2023/02/15 01:36:39;;;;;;;29.83;13.52;;;;;;;;;;5065164;28;20016;-58
2023/02/15 01:39:04;;;;;;;30.45;13.55;;;;;;;;;;5066081;28;20064;-58
2023/02/15 01:41:30;;;;;;;29.73;12.70;;;;;;;;;;5064742;28;20021;-58
2023/02/15 01:44:01;;;;;;;27.17;12.43;;;;;;;;;;5068495;28;20047;-58
2023/02/15 01:46:40;;;;;;;27.27;13.18;;;;;;;;;;5067456;28;20059;-58
2023/02/15 01:49:14;;;;;;;27.88;13.02;;;;;;;;;;5063373;28;20032;-58
2023/02/15 01:51:42;;;;;;;25.02;12.13;;;;;;;;;;5066787;28;20434;-58
2023/02/15 01:54:24;;;;;;;27.70;11.95;;;;;;;;;;5067676;28;20032;-58
2023/02/15 01:56:50;;;;;;;28.08;11.73;;;;;;;;;;5065555;28;20082;-58
2023/02/15 01:59:19;;;;;;;27.38;12.32;;;;;;;;;;5065923;28;20460;-58
2023/02/15 02:01:45;;;;;;;26.58;12.98;;;;;;;;;;5065997;28;20070;-58
2023/02/15 02:04:38;;;;;;;25.85;12.70;;;;;;;;;;5065564;28;20406;-59
2023/02/15 02:07:05;;;;;;;30.85;12.73;;;;;;;;;;5065633;28;20778;-59
2023/02/15 02:09:30;;;;;;;26.15;12.30;;;;;;;;;;5074542;28;20044;-58
2023/02/15 02:11:55;;;;;;;24.17;12.40;;;;;;;;;;5065139;28;20102;-57
2023/02/15 02:14:22;;;;;;;24.55;12.02;;;;;;;;;;5067817;28;20127;-58
2023/02/15 02:16:54;;;;;;;25.63;11.50;;;;;;;;;;5063793;28;20432;-58
2023/02/15 02:19:46;;;;;;;24.10;11.80;;;;;;;;;;5061066;28;20025;-58
2023/02/15 02:22:41;;;;;;;24.17;11.23;;;;;;;;;;5068107;28;20025;-58
2023/02/15 02:25:30;;;;;;;35.90;13.98;;;;;;;;;;5064964;28;20017;-57
2023/02/15 02:28:04;;;;;;;24.88;12.02;;;;;;;;;;5067329;28;20384;-59
2023/02/15 02:31:01;;;;;;;24.65;11.43;;;;;;;;;;5066368;28;20508;-59
2023/02/15 02:33:36;;;;;;;25.10;10.52;;;;;;;;;;5043213;28;20045;-58
2023/02/15 02:36:19;;;;;;;21.33;9.57;;;;;;;;;;5067035;28;20036;-58
2023/02/15 02:39:16;;;;;;;23.17;9.93;;;;;;;;;;5066637;28;20105;-58
2023/02/15 02:42:05;;;;;;;20.92;10.20;;;;;;;;;;5067320;28;20051;-58
2023/02/15 02:45:09;;;;;;;19.55;9.73;;;;;;;;;;5066915;28;20036;-57
2023/02/15 02:47:48;;;;;;;24.33;10.45;;;;;;;;;;5012987;28;20038;-57
2023/02/15 02:50:21;;;;;;;21.27;10.50;;;;;;;;;;5017217;28;20111;-58
2023/02/15 02:52:49;;;;;;;21.15;10.13;;;;;;;;;;5044854;28;20032;-59
2023/02/15 02:55:17;;;;;;;17.90;9.10;;;;;;;;;;5065490;28;20054;-59
2023/02/15 02:57:51;;;;;;;22.85;10.00;;;;;;;;;;5065536;28;20119;-57
2023/02/15 03:00:18;;;;;;;18.08;9.27;;;;;;;;;;5066492;28;20020;-57
2023/02/15 03:02:45;;;;;;;21.92;9.13;;;;;;;;;;5069126;28;20040;-57
2023/02/15 03:05:18;;;;;;;21.05;10.05;;;;;;;;;;5069563;28;20040;-57
2023/02/15 03:07:48;;;;;;;22.17;9.45;;;;;;;;;;5065007;28;20036;-58
2023/02/15 03:10:14;;;;;;;;;;;;;;;;;;5065046;28;20020;-58
2023/02/15 03:12:40;;;;;;;20.13;8.52;;;;;;;;;;5063775;28;19920;-58
2023/02/15 03:15:08;;;;;;;17.30;8.18;;;;;;;;;;5064025;28;20029;-58
2023/02/15 03:17:37;;;;;;;22.38;9.52;;;;;;;;;;5065224;28;20040;-59
2023/02/15 03:20:31;;;;;;;20.48;10.07;;;;;;;;;;5061289;28;20580;-59
2023/02/15 03:23:04;;;;;;;26.90;10.85;;;;;;;;;;5062774;28;20032;-58
2023/02/15 03:25:37;;;;;;;25.27;10.55;;;;;;;;;;5064625;28;20036;-58
2023/02/15 03:28:07;;;;;;;21.13;9.43;;;;;;;;;;5061741;28;20042;-59
2023/02/15 03:30:35;;;;;;;24.08;10.27;;;;;;;;;;5066856;28;20149;-57
2023/02/15 03:33:03;;;;;;;28.27;11.60;;;;;;;;;;5061734;28;20155;-57
2023/02/15 03:35:41;;;;;;;22.33;11.52;;;;;;;;;;5065650;28;20432;-57
2023/02/15 03:38:08;;;;;;;23.85;11.25;;;;;;;;;;5065912;28;20043;-57
2023/02/15 03:43:49;;;;;;;24.15;10.77;;;;;;;;;;5070520;28;20567;-58
2023/02/15 03:46:53;;;;;;;24.13;10.43;;;;;;;;;;5070580;28;20085;-57
2023/02/15 03:49:29;;;;;;;23.33;11.38;;;;;;;;;;5044418;28;20028;-58
2023/02/15 03:51:57;;;;;;;25.00;11.02;;;;;;;;;;5071080;28;20032;-58
2023/02/15 03:54:43;;;;;;;21.30;11.20;;;;;;;;;;5076336;28;20086;-57
2023/02/15 04:03:02;;;;;;;23.45;10.50;;;;;;;;;;5068763;28;20488;-58
2023/02/15 04:05:27;;;;;;;28.17;11.73;;;;;;;;;;5065950;28;20043;-58
2023/02/15 04:07:53;;;;;;;24.83;11.80;;;;;;;;;;5070151;28;20032;-58
2023/02/15 04:13:02;;;;;;;24.38;10.63;;;;;;;;;;5071289;28;20031;-57
2023/02/15 04:18:11;;;;;;;22.98;10.38;;;;;;;;;;5068233;28;20030;-57
2023/02/15 04:26:05;;;;;;;20.30;9.90;;;;;;;;;;5068540;28;20089;-59
2023/02/15 04:28:31;;;;;;;21.70;8.75;;;;;;;;;;5070589;28;20028;-60
2023/02/15 04:30:56;;;;;;;20.60;9.23;;;;;;;;;;5070515;28;20105;-57
2023/02/15 04:33:21;;;;;;;18.45;9.60;;;;;;;;;;5070464;28;20020;-58
2023/02/15 04:35:47;;;;;;;17.38;8.60;;;;;;;;;;5069285;28;20621;-58
2023/02/15 04:38:12;;;;;;;20.15;9.25;;;;;;;;;;5068977;28;20035;-57
2023/02/15 04:40:37;;;;;;;19.30;8.52;;;;;;;;;;5070476;28;20366;-57
2023/02/15 04:43:03;;;;;;;19.50;8.88;;;;;;;;;;5068708;28;20031;-56
2023/02/15 04:45:28;;;;;;;17.40;7.88;;;;;;;;;;5068266;28;20050;-59
2023/02/15 04:47:53;;;;;;;16.20;7.03;;;;;;;;;;5068843;28;20025;-58
2023/02/15 04:50:19;;;;;;;17.55;8.30;;;;;;;;;;5067856;28;20024;-57
2023/02/15 04:52:44;;;;;;;18.50;8.18;;;;;;;;;;5068532;28;20109;-57
2023/02/15 04:55:10;;;;;;;15.90;7.63;;;;;;;;;;5070794;28;20036;-57
2023/02/15 04:57:35;;;;;;;18.92;8.18;;;;;;;;;;5066276;28;20028;-58
2023/02/15 05:00:01;;;;;;;15.05;7.88;;;;;;;;;;5050836;28;20489;-58
2023/02/15 05:02:26;;;;;;;18.92;8.55;;;;;;;;;;5067901;28;20025;-58
2023/02/15 05:04:51;;;;;;;20.52;8.80;;;;;;;;;;5067154;28;20028;-57
2023/02/15 05:07:17;;;;;;;22.35;9.13;;;;;;;;;;5067868;28;20107;-57
2023/02/15 05:09:43;;;;;;;19.90;9.00;;;;;;;;;;5066091;28;20112;-57
2023/02/15 05:12:08;;;;;;;19.88;8.27;;;;;;;;;;5069292;28;20417;-58
2023/02/15 05:14:33;;;;;;;20.23;9.55;;;;;;;;;;5065114;28;20485;-57
2023/02/15 05:17:01;;;;;;;20.33;8.40;;;;;;;;;;5067677;28;20066;-58
2023/02/15 05:19:27;;;;;;;27.05;11.85;;;;;;;;;;5068740;28;20016;-57
2023/02/15 05:21:52;;;;;;;24.27;12.38;;;;;;;;;;5069166;28;20066;-58
2023/02/15 05:29:45;;;;;;;25.33;11.43;;;;;;;;;;5065826;28;20599;-58
2023/02/15 05:32:13;;;;;;;21.75;9.85;;;;;;;;;;5066701;28;20028;-57
2023/02/15 05:34:39;;;;;;;20.75;9.98;;;;;;;;;;5068206;28;20032;-57
2023/02/15 05:37:04;;;;;;;18.73;9.43;;;;;;;;;;5065001;28;20055;-59
2023/02/15 05:39:29;;;;;;;18.38;9.27;;;;;;;;;;5066742;28;20046;-59
2023/02/15 05:41:58;;;;;;;23.30;10.23;;;;;;;;;;5069301;28;20082;-57
2023/02/15 05:44:24;;;;;;;20.02;8.38;;;;;;;;;;5067915;28;20101;-57
2023/02/15 05:46:49;;;;;;;19.15;10.25;;;;;;;;;;5065783;28;20485;-59
2023/02/15 05:49:14;;;;;;;22.08;10.07;;;;;;;;;;5066728;28;20107;-58
2023/02/15 05:51:40;;;;;;;19.25;9.30;;;;;;;;;;5066913;28;20064;-59
2023/02/15 05:54:05;;;;;;;24.40;10.88;;;;;;;;;;5066443;28;20021;-60
2023/02/15 05:56:31;;;;;;;22.15;9.18;;;;;;;;;;5065303;28;20104;-58
2023/02/15 05:58:56;;;;;;;24.00;10.15;;;;;;;;;;5066438;28;20073;-58
2023/02/15 06:01:22;;;;;;;23.90;11.43;;;;;;;;;;5065953;28;20087;-57
2023/02/15 06:03:48;;;;;;;11.38;6.43;;;;;;;;;;5067729;28;20033;-57
2023/02/15 06:06:14;;;;;;;31.95;13.60;;;;;;;;;;5067029;28;20111;-57
2023/02/15 06:08:40;;;;;;;31.48;15.38;;;;;;;;;;5066956;28;20065;-56
2023/02/15 06:11:06;;;;;;;33.17;15.70;;;;;;;;;;5065280;28;20543;-57
2023/02/15 06:13:32;;;;;;;32.78;16.17;;;;;;;;;;5060170;28;20032;-56
2023/02/15 06:15:58;;;;;;;33.38;15.43;;;;;;;;;;5067560;28;20111;-56
2023/02/15 06:18:23;;;;;;;29.77;15.23;;;;;;;;;;5066286;28;20624;-57
2023/02/15 06:20:49;;;;;;;26.05;12.98;;;;;;;;;;5066332;28;20027;-57
2023/02/15 06:23:15;;;;;;;28.60;14.27;;;;;;;;;;5062230;28;20108;-56
2023/02/15 06:25:40;;;;;;;26.27;13.90;;;;;;;;;;5065555;28;20528;-59
2023/02/15 06:28:06;;;;;;;26.98;13.38;;;;;;;;;;5063857;28;20521;-57
2023/02/15 06:30:32;;;;;;;25.08;12.75;;;;;;;;;;5063437;28;20039;-56
2023/02/15 06:32:57;;;;;;;28.02;12.38;;;;;;;;;;5065006;28;20123;-57
2023/02/15 06:35:23;;;;;;;23.55;11.85;;;;;;;;;;5064301;28;20020;-57
2023/02/15 06:37:48;;;;;;;29.25;13.63;;;;;;;;;;5063708;28;20039;-57
2023/02/15 06:40:14;;;;;;;32.38;14.43;;;;;;;;;;5067388;28;20239;-55
2023/02/15 06:42:41;;;;;;;40.67;16.20;;;;;;;;;;5063150;28;20028;-57
2023/02/15 06:45:07;;;;;;;33.70;14.32;;;;;;;;;;5064974;28;20029;-56
2023/02/15 06:47:33;;;;;;;33.83;12.80;;;;;;;;;;5062163;28;20051;-57
2023/02/15 06:49:58;;;;;;;29.65;13.27;;;;;;;;;;5066874;28;20021;-56
2023/02/15 06:52:24;;;;;;;30.92;14.13;;;;;;;;;;5063947;28;20111;-57
2023/02/15 06:54:49;;;;;;;23.85;12.40;;;;;;;;;;5066964;28;20020;-57
2023/02/15 06:57:15;;;;;;;23.95;12.98;;;;;;;;;;5064431;28;20078;-56
2023/02/15 06:59:40;;;;;;;27.77;12.45;;;;;;;;;;5064326;28;20036;-57
2023/02/15 07:02:05;;;;;;;27.27;13.23;;;;;;;;;;5062509;28;20454;-57
2023/02/15 07:04:31;;;;;;;28.35;12.50;;;;;;;;;;5066383;28;20037;-56
2023/02/15 07:06:56;;;;;;;30.48;12.68;;;;;;;;;;5065800;28;20025;-57
2023/02/15 07:09:22;;;;;;;25.25;12.35;;;;;;;;;;5065237;28;20071;-58
2023/02/15 07:14:31;;;;;;;24.38;12.15;;;;;;;;;;5066660;28;20044;-57
2023/02/15 07:16:57;;;;;;;29.90;14.73;;;;;;;;;;5068432;28;20024;-57
2023/02/15 07:19:23;;;;;;;29.38;14.07;;;;;;;;;;5068949;28;20040;-57
2023/02/15 07:21:48;;;;;;;28.67;13.98;;;;;;;;;;5068848;28;20052;-57
2023/02/15 07:24:14;;;;;;;32.72;15.25;;;;;;;;;;5068969;28;20031;-57
2023/02/15 07:26:39;;;;;;;31.55;15.35;;;;;;;;;;5068113;28;20028;-56
2023/02/15 07:29:04;;;;;;;33.63;18.73;;;;;;;;;;5073019;28;20085;-56
2023/02/15 07:31:30;;;;;;;39.63;18.55;;;;;;;;;;5068440;28;20021;-57
2023/02/15 07:33:55;;;;;;;35.80;19.20;;;;;;;;;;5069983;28;20028;-57
2023/02/15 07:36:21;;;;;;;38.92;19.73;;;;;;;;;;5069643;28;20107;-56
2023/02/15 07:38:46;;;;;;;28.73;14.68;;;;;;;;;;5068915;28;20112;-58
2023/02/15 07:41:13;;;;;;;28.92;14.13;;;;;;;;;;5070057;28;21953;-57
2023/02/15 07:43:42;;;;;;;44.20;19.05;;;;;;;;;;5069278;28;20032;-57
2023/02/15 07:46:16;;;;;;;37.05;17.67;;;;;;;;;;5068686;28;20039;-57
2023/02/15 07:48:42;;;;;;;35.97;15.52;;;;;;;;;;5067340;28;20028;-57
2023/02/15 07:51:09;;;;;;;45.40;18.02;;;;;;;;;;5068575;28;20194;-58
2023/02/15 07:53:36;;;;;;;46.75;19.30;;;;;;;;;;5068225;28;20102;-57
2023/02/15 07:56:12;;;;;;;42.33;18.08;;;;;;;;;;5067276;28;20029;-58
2023/02/15 07:58:55;;;;;;;40.58;18.05;;;;;;;;;;5064970;28;20029;-57
2023/02/15 08:01:31;;;;;;;38.53;16.52;;;;;;;;;;5069451;28;20066;-57
2023/02/15 08:03:56;;;;;;;38.45;15.40;;;;;;;;;;5064092;28;20044;-56
2023/02/15 08:06:24;;;;;;;28.42;14.23;;;;;;;;;;5067631;28;20441;-57
2023/02/15 08:08:49;;;;;;;31.20;14.70;;;;;;;;;;5068301;28;20032;-58
2023/02/15 08:11:25;;;;;;;34.75;14.82;;;;;;;;;;5068819;28;20073;-58
2023/02/15 08:14:03;;;;;;;33.13;15.43;;;;;;;;;;5064490;28;20028;-57
2023/02/15 08:16:42;;;;;;;33.70;14.93;;;;;;;;;;5067319;28;20036;-56
2023/02/15 08:19:10;;;;;;;33.75;16.50;;;;;;;;;;5069162;28;20033;-57
2023/02/15 08:21:38;;;;;;;34.38;18.40;;;;;;;;;;5068261;28;20035;-57
2023/02/15 08:24:05;;;;;;;42.78;20.00;;;;;;;;;;5071096;28;20052;-56
2023/02/15 08:26:31;;;;;;;45.45;22.17;;;;;;;;;;5065194;28;20017;-57
2023/02/15 08:28:58;;;;;;;42.33;20.65;;;;;;;;;;5069155;28;20075;-58
2023/02/15 08:31:23;;;;;;;43.78;20.75;;;;;;;;;;5067199;28;20028;-56
2023/02/15 08:33:51;;;;;;;38.45;20.33;;;;;;;;;;5067914;28;20024;-56
2023/02/15 08:36:22;;;;;;;42.40;21.17;;;;;;;;;;5068585;28;20025;-58
2023/02/15 08:38:48;;;;;;;42.97;22.52;;;;;;;;;;5066427;28;20032;-57
2023/02/15 08:41:20;;;;;;;50.28;23.77;;;;;;;;;;5068727;28;20021;-57
2023/02/15 08:43:47;;;;;;;47.17;23.92;;;;;;;;;;5067651;28;20033;-57
2023/02/15 08:46:15;;;;;;;46.58;25.55;;;;;;;;;;5068079;28;20025;-57
2023/02/15 08:48:41;;;;;;;46.95;23.38;;;;;;;;;;5066554;28;20165;-57
2023/02/15 08:51:11;;;;;;;47.25;24.33;;;;;;;;;;5068025;28;20024;-57
2023/02/15 08:53:42;;;;;;;46.88;25.50;;;;;;;;;;5067240;28;20059;-57
2023/02/15 08:56:08;;;;;;;56.33;26.77;;;;;;;;;;5066174;28;20028;-58
2023/02/15 08:58:34;;;;;;;57.35;29.00;;;;;;;;;;5067463;28;20418;-57
2023/02/15 09:01:01;;;;;;;59.85;30.73;;;;;;;;;;5068288;28;20028;-57
2023/02/15 09:03:28;;;;;;;61.67;31.67;;;;;;;;;;5066990;28;20132;-57
2023/02/15 09:06:00;;;;;;;61.95;29.30;;;;;;;;;;5067210;28;20032;-56
2023/02/15 09:08:27;;;;;;;59.63;30.65;;;;;;;;;;5062605;28;20021;-56
2023/02/15 09:10:52;;;;;;;55.55;27.73;;;;;;;;;;5067356;28;20036;-57
2023/02/15 09:13:18;;;;;;;54.13;27.35;;;;;;;;;;5065235;28;20020;-57
2023/02/15 09:15:43;;;;;;;61.08;29.23;;;;;;;;;;5066233;28;20032;-56
2023/02/15 09:18:09;;;;;;;58.20;30.45;;;;;;;;;;5067116;28;20074;-57
2023/02/15 09:20:37;;;;;;;64.80;29.67;;;;;;;;;;5068387;28;20061;-57
2023/02/15 09:23:03;;;;;;;66.55;28.77;;;;;;;;;;5065104;28;20031;-58
2023/02/15 09:25:28;;;;;;;64.43;30.95;;;;;;;;;;5067354;28;20032;-57
2023/02/15 09:27:54;;;;;;;69.07;32.45;;;;;;;;;;5065531;28;20024;-57
2023/02/15 09:30:19;;;;;;;74.63;33.40;;;;;;;;;;5069551;28;20070;-58
2023/02/15 09:32:46;;;;;;;72.70;32.15;;;;;;;;;;5066342;28;20159;-58
2023/02/15 09:35:12;;;;;;;69.28;30.83;;;;;;;;;;5065858;28;20024;-58
2023/02/15 09:37:37;;;;;;;66.32;30.38;;;;;;;;;;5064405;28;20038;-58
2023/02/15 09:40:04;;;;;;;66.43;28.40;;;;;;;;;;5066185;28;20028;-58
2023/02/15 09:42:31;;;;;;;60.70;28.45;;;;;;;;;;5067797;28;20127;-58
2023/02/15 09:45:15;;;;;;;66.25;30.75;;;;;;;;;;5066519;28;20031;-59
2023/02/15 09:47:43;;;;;;;67.78;29.75;;;;;;;;;;5066430;28;20031;-59
2023/02/15 09:50:20;;;;;;;66.68;30.83;;;;;;;;;;5067520;28;20024;-56
2023/02/15 09:52:54;;;;;;;75.68;31.33;;;;;;;;;;5066105;28;20028;-59
2023/02/15 09:55:45;;;;;;;63.15;28.55;;;;;;;;;;5065632;28;20710;-58
2023/02/15 09:58:30;;;;;;;61.83;28.92;;;;;;;;;;5067260;28;20035;-59
2023/02/15 10:01:06;;;;;;;64.45;29.40;;;;;;;;;;5064928;28;20028;-58
2023/02/15 10:03:53;;;;;;;64.20;30.30;;;;;;;;;;5066440;28;20020;-58
2023/02/15 10:06:56;;;;;;;63.67;30.23;;;;;;;;;;5063528;28;20656;-57
2023/02/15 10:09:43;;;;;;;62.17;29.63;;;;;;;;;;5064754;28;20091;-58
2023/02/15 10:12:17;;;;;;;65.95;30.15;;;;;;;;;;5066083;28;20389;-57
2023/02/15 10:15:11;;;;;;;57.97;27.40;;;;;;;;;;5064691;28;20024;-58
2023/02/15 10:17:51;;;;;;;57.75;28.63;;;;;;;;;;5066159;28;20059;-58
2023/02/15 10:20:49;;;;;;;61.33;29.50;;;;;;;;;;5065896;28;20137;-58
2023/02/15 10:23:23;;;;;;;60.78;28.67;;;;;;;;;;5067021;28;20024;-58
2023/02/15 10:25:57;;;;;;;65.95;30.38;;;;;;;;;;5064939;28;20501;-58
2023/02/15 10:28:38;;;;;;;59.72;29.02;;;;;;;;;;5053808;28;20024;-59
2023/02/15 10:31:37;;;;;;;62.17;29.92;;;;;;;;;;5061137;28;20050;-59
2023/02/15 10:34:16;;;;;;;63.17;29.60;;;;;;;;;;5065191;28;20036;-59
2023/02/15 10:36:47;;;;;;;60.83;30.17;;;;;;;;;;5065472;28;20135;-59
2023/02/15 10:39:28;;;;;;;62.53;30.40;;;;;;;;;;5066601;28;20028;-59
2023/02/15 10:42:11;;;;;;;61.25;31.30;;;;;;;;;;5065604;28;20033;-59
2023/02/15 10:44:49;;;;;;;57.65;30.27;;;;;;;;;;5065042;28;20044;-59
2023/02/15 10:47:17;;;;;;;63.20;31.23;;;;;;;;;;5066084;28;20504;-59
2023/02/15 10:49:45;;;;;;;56.63;29.65;;;;;;;;;;5070662;28;20142;-59
2023/02/15 10:52:56;;;;;;;54.42;28.35;;;;;;;;;;5069605;28;20111;-59
2023/02/15 10:55:25;;;;;;;53.95;27.63;;;;;;;;;;5066997;28;20485;-59
2023/02/15 10:57:50;;;;;;;52.38;28.25;;;;;;;;;;5065264;28;20111;-59
2023/02/15 11:00:27;;;;;;;55.42;29.40;;;;;;;;;;5069526;28;20173;-59
2023/02/15 11:03:04;;;;;;;53.58;28.65;;;;;;;;;;5069912;28;20035;-59
2023/02/15 11:06:00;;;;;;;51.72;26.13;;;;;;;;;;5069055;28;20059;-59
2023/02/15 11:08:28;;;;;;;51.25;27.67;;;;;;;;;;5068102;28;20039;-59
2023/02/15 11:11:01;;;;;;;49.20;27.05;;;;;;;;;;5070356;28;20032;-59
2023/02/15 11:13:33;;;;;;;52.00;26.85;;;;;;;;;;5070345;28;20031;-60
2023/02/15 11:16:18;;;;;;;55.22;28.63;;;;;;;;;;5069949;28;20028;-59
2023/02/15 11:18:55;;;;;;;48.75;28.67;;;;;;;;;;5065586;28;20032;-59
2023/02/15 11:21:29;;;;;;;53.08;27.20;;;;;;;;;;5065924;28;20044;-59
2023/02/15 11:23:55;;;;;;;53.13;27.83;;;;;;;;;;5070484;28;20115;-59
2023/02/15 11:26:42;;;;;;;52.42;30.02;;;;;;;;;;5070399;28;20517;-60
2023/02/15 11:29:35;;;;;;;54.97;29.80;;;;;;;;;;5070010;28;20051;-59
2023/02/15 11:32:12;;;;;;;45.35;26.42;;;;;;;;;;5065198;28;20493;-59
2023/02/15 11:34:44;;;;;;;49.90;28.10;;;;;;;;;;5069959;28;20029;-59
2023/02/15 11:37:18;;;;;;;49.88;26.85;;;;;;;;;;5067621;28;20035;-59
2023/02/15 11:39:44;;;;;;;45.38;27.27;;;;;;;;;;5069101;28;20029;-59
2023/02/15 11:42:14;;;;;;;69.97;34.90;;;;;;;;;;5070369;28;20062;-59
2023/02/15 11:44:56;;;;;;;60.38;33.00;;;;;;;;;;5067850;28;20101;-60
2023/02/15 11:47:21;;;;;;;49.85;29.83;;;;;;;;;;5067413;28;20028;-58
2023/02/15 11:49:47;;;;;;;30.02;16.38;;;;;;;;;;5069465;28;20033;-58
2023/02/15 11:52:15;;;;;;;49.58;25.90;;;;;;;;;;5071602;28;20103;-60
2023/02/15 11:54:47;;;;;;;44.65;26.55;;;;;;;;;;5068049;28;20076;-60
2023/02/15 11:57:37;;;;;;;48.28;26.48;;;;;;;;;;5068462;28;20062;-59
2023/02/15 12:00:07;;;;;;;43.22;26.20;;;;;;;;;;5069703;28;20468;-58
2023/02/15 12:02:35;;;;;;;43.83;26.80;;;;;;;;;;5066918;28;20021;-59
2023/02/15 12:05:05;;;;;;;41.92;26.30;;;;;;;;;;5067860;28;20028;-59
2023/02/15 12:07:36;;;;;;;39.97;25.38;;;;;;;;;;5064380;28;20040;-59
2023/02/15 12:10:19;;;;;;;39.58;25.45;;;;;;;;;;5068886;28;20056;-59
2023/02/15 12:12:45;;;;;;;36.17;23.38;;;;;;;;;;5065100;28;20410;-58
2023/02/15 12:15:12;;;;;;;39.60;23.83;;;;;;;;;;5067918;28;20016;-59
2023/02/15 12:17:40;;;;;;;39.67;22.70;;;;;;;;;;5068355;28;20025;-59
2023/02/15 12:20:14;;;;;;;32.22;20.98;;;;;;;;;;5067241;28;20020;-59
2023/02/15 12:22:48;;;;;;;33.92;19.63;;;;;;;;;;5069337;28;20020;-59
2023/02/15 12:25:32;;;;;;;30.38;19.35;;;;;;;;;;5069145;28;20028;-59
2023/02/15 12:27:58;;;;;;;39.65;19.95;;;;;;;;;;5064468;28;20569;-60
2023/02/15 12:30:27;;;;;;;33.60;19.30;;;;;;;;;;5068891;28;20040;-58
2023/02/15 12:32:59;;;;;;;;;;;;;;;;;;5065661;28;20025;-59
2023/02/15 12:35:27;;;;;;;32.20;19.25;;;;;;;;;;5071625;28;19912;-60
2023/02/15 12:38:02;;;;;;;31.73;19.33;;;;;;;;;;5068253;28;20037;-59
2023/02/15 12:40:30;;;;;;;34.63;19.95;;;;;;;;;;5065535;28;20036;-59
2023/02/15 12:42:55;;;;;;;36.55;20.75;;;;;;;;;;5068058;28;20029;-60
2023/02/15 12:45:28;;;;;;;33.53;20.33;;;;;;;;;;5066704;28;20036;-58
2023/02/15 12:48:11;;;;;;;34.33;19.15;;;;;;;;;;5066530;28;20078;-59
2023/02/15 12:50:38;;;;;;;31.02;19.48;;;;;;;;;;5066460;28;20043;-58
2023/02/15 12:53:33;;;;;;;30.50;18.98;;;;;;;;;;5067506;28;20032;-59
2023/02/15 12:56:02;;;;;;;30.40;18.52;;;;;;;;;;5064495;28;20073;-58
2023/02/15 12:58:30;;;;;;;31.50;19.77;;;;;;;;;;5064492;28;20024;-57
2023/02/15 13:01:16;;;;;;;31.35;20.25;;;;;;;;;;5066608;28;20039;-58
2023/02/15 13:04:02;;;;;;;35.50;19.92;;;;;;;;;;5065563;28;20027;-61
2023/02/15 13:06:30;;;;;;;30.15;20.05;;;;;;;;;;5068993;28;20028;-59
2023/02/15 13:09:04;;;;;;;32.85;19.70;;;;;;;;;;5067341;28;20494;-60
2023/02/15 13:11:34;;;;;;;25.42;17.52;;;;;;;;;;5066958;28;20033;-60
2023/02/15 13:14:16;;;;;;;25.38;17.25;;;;;;;;;;5066305;28;20028;-61
2023/02/15 13:16:45;;;;;;;24.55;16.58;;;;;;;;;;5065672;28;20498;-60
2023/02/15 13:19:27;;;;;;;29.60;18.10;;;;;;;;;;5065880;28;20073;-60
2023/02/15 13:21:54;;;;;;;28.67;17.95;;;;;;;;;;5066534;28;20510;-59
2023/02/15 13:24:27;;;;;;;26.10;16.27;;;;;;;;;;5068716;28;20029;-60
2023/02/15 13:26:55;;;;;;;43.42;17.52;;;;;;;;;;5065502;28;20032;-60
2023/02/15 13:29:28;;;;;;;27.17;16.87;;;;;;;;;;5066171;28;20025;-60
2023/02/15 13:31:55;;;;;;;27.05;16.00;;;;;;;;;;5064341;28;20031;-59
2023/02/15 13:34:28;;;;;;;24.63;16.40;;;;;;;;;;5071071;28;20032;-59
2023/02/15 13:37:05;;;;;;;23.60;15.25;;;;;;;;;;5069086;28;20039;-60
2023/02/15 13:39:39;;;;;;;27.20;16.33;;;;;;;;;;5068728;28;20075;-58
2023/02/15 13:42:26;;;;;;;28.45;16.23;;;;;;;;;;5067738;28;20473;-58
2023/02/15 13:44:57;;;;;;;29.23;15.65;;;;;;;;;;5066508;28;20400;-58
2023/02/15 13:47:45;;;;;;;24.33;14.95;;;;;;;;;;5064755;28;20028;-58
2023/02/15 13:50:16;;;;;;;23.73;15.18;;;;;;;;;;5067574;28;20032;-59
2023/02/15 13:53:29;;;;;;;25.20;15.35;;;;;;;;;;5071964;28;20031;-58
2023/02/15 13:56:06;;;;;;;23.27;16.63;;;;;;;;;;5045773;28;20032;-59
2023/02/15 13:58:56;;;;;;;21.55;14.18;;;;;;;;;;5065406;28;20037;-59
2023/02/15 14:02:03;;;;;;;20.48;14.20;;;;;;;;;;5035876;28;20036;-59
2023/02/15 14:04:54;;;;;;;20.08;13.10;;;;;;;;;;5035578;28;20052;-58
2023/02/15 14:07:38;;;;;;;15.50;11.55;;;;;;;;;;5062947;28;20564;-58
2023/02/15 14:10:21;;;;;;;15.85;10.85;;;;;;;;;;5066747;28;20478;-58
2023/02/15 14:12:49;;;;;;;21.58;11.82;;;;;;;;;;5062588;28;20481;-58
2023/02/15 14:15:23;;;;;;;19.95;13.30;;;;;;;;;;5067023;28;20036;-58
2023/02/15 14:18:25;;;;;;;24.27;14.40;;;;;;;;;;5066308;28;20570;-60
2023/02/15 14:20:51;;;;;;;26.75;13.65;;;;;;;;;;5046974;28;20179;-60
2023/02/15 14:23:29;;;;;;;24.15;14.27;;;;;;;;;;5065579;28;20107;-60
2023/02/15 14:26:09;;;;;;;22.53;14.20;;;;;;;;;;5061617;28;20031;-60
2023/02/15 14:28:47;;;;;;;19.05;14.05;;;;;;;;;;5065002;28;20051;-60
2023/02/15 14:31:15;;;;;;;20.27;13.18;;;;;;;;;;5066583;28;20111;-58
2023/02/15 14:33:52;;;;;;;17.40;12.50;;;;;;;;;;5066587;28;20048;-58
2023/02/15 14:36:19;;;;;;;28.92;14.43;;;;;;;;;;5064600;28;20032;-57
2023/02/15 14:42:18;;;;;;;24.02;12.60;;;;;;;;;;5062717;28;20040;-53
2023/02/15 14:45:04;;;;;;;23.40;14.00;;;;;;;;;;5066211;28;20035;-59
2023/02/15 14:47:39;;;;;;;22.42;11.32;;;;;;;;;;5063020;28;20059;-58
2023/02/15 14:50:31;;;;;;;15.43;10.27;;;;;;;;;;5062779;28;20032;-58
2023/02/15 14:53:30;;;;;;;15.02;11.20;;;;;;;;;;5038888;28;20046;-58
2023/02/15 14:56:10;;;;;;;18.88;12.48;;;;;;;;;;5063700;28;20517;-58
2023/02/15 14:58:54;;;;;;;22.38;12.50;;;;;;;;;;5063630;28;20127;-58
2023/02/15 15:01:26;;;;;;;17.02;11.48;;;;;;;;;;5065039;28;20032;-59
2023/02/15 15:03:56;;;;;;;17.50;11.88;;;;;;;;;;5063541;28;20260;-59
2023/02/15 15:06:28;;;;;;;19.48;12.05;;;;;;;;;;5063699;28;20114;-59
2023/02/15 15:09:27;;;;;;;19.73;11.18;;;;;;;;;;5065977;28;20166;-59
2023/02/15 15:11:54;;;;;;;18.00;10.90;;;;;;;;;;5064518;28;20394;-58
2023/02/15 15:14:32;;;;;;;17.17;10.93;;;;;;;;;;5064438;28;20513;-58
2023/02/15 15:17:01;;;;;;;17.95;11.35;;;;;;;;;;5063892;28;20078;-60